Time;durP1;ratioP1;P1;durP2;ratioP2;P2;SDS_P1;SDS_P2;PMS_P1;PMS_P2;Temp;Humidity;BMP_temperature;BMP_pressure;BME280_temperature;BME280_humidity;BME280_pressure;Samples;Min_cycle;Max_cycle;Signal;HPM_P1;HPM_P2
2021/05/03 00:01:15;;;;;;;5.53;4.00;;;6.00;43.70;;;;;;5021555;28;20183;-78
2021/05/03 00:03:41;;;;;;;4.87;3.67;;;6.10;43.30;;;;;;5022357;28;20276;-78
2021/05/03 00:06:06;;;;;;;11.60;5.77;;;6.00;44.20;;;;;;5024401;28;20200;-80
2021/05/03 00:08:32;;;;;;;4.53;4.23;;;5.80;46.50;;;;;;5026126;28;20172;-79
2021/05/03 00:10:58;;;;;;;10.70;4.60;;;5.70;49.00;;;;;;5031576;28;20223;-78
2021/05/03 00:13:25;;;;;;;9.13;5.13;;;5.40;49.50;;;;;;5024061;28;20192;-78
2021/05/03 00:15:51;;;;;;;11.30;6.57;;;5.20;51.70;;;;;;5024169;28;20238;-79
2021/05/03 00:18:17;;;;;;;9.80;4.88;;;4.90;54.30;;;;;;5028669;28;20187;-81
2021/05/03 00:20:44;;;;;;;8.87;4.93;;;4.90;58.50;;;;;;5035528;28;20165;-78
2021/05/03 00:23:09;;;;;;;10.65;5.60;;;4.80;59.10;;;;;;5030694;28;20588;-79
2021/05/03 00:25:35;;;;;;;8.00;3.70;;;4.80;59.10;;;;;;5024650;28;20208;-79
2021/05/03 00:28:00;;;;;;;4.17;3.67;;;5.00;59.30;;;;;;5026372;28;20185;-79
2021/05/03 00:30:26;;;;;;;9.10;4.70;;;5.30;55.50;;;;;;5024630;28;20210;-79
2021/05/03 00:32:52;;;;;;;5.53;4.53;;;5.50;52.40;;;;;;5034807;28;20231;-79
2021/05/03 00:35:17;;;;;;;4.63;3.77;;;5.70;50.90;;;;;;5038014;28;20236;-79
2021/05/03 00:37:43;;;;;;;10.80;5.23;;;5.40;51.90;;;;;;5039423;28;20207;-79
2021/05/03 00:40:10;;;;;;;20.07;7.50;;;5.30;55.60;;;;;;5022390;28;20181;-80
2021/05/03 00:42:36;;;;;;;9.65;5.75;;;5.30;54.00;;;;;;5023185;28;20191;-79
2021/05/03 00:45:07;;;;;;;11.95;5.43;;;5.10;54.20;;;;;;5023275;28;20567;-80
2021/05/03 00:47:33;;;;;;;10.85;4.15;;;5.00;60.00;;;;;;5023533;28;20167;-79
2021/05/03 00:49:59;;;;;;;8.90;4.15;;;5.10;58.60;;;;;;5021453;28;20180;-80
2021/05/03 00:52:25;;;;;;;6.80;4.70;;;5.00;59.70;;;;;;5021495;28;20176;-80
2021/05/03 00:54:50;;;;;;;9.90;4.53;;;4.90;58.90;;;;;;5019496;28;20219;-79
2021/05/03 00:57:16;;;;;;;7.23;4.73;;;4.70;60.50;;;;;;5021950;28;20200;-80
2021/05/03 00:59:42;;;;;;;8.13;5.20;;;4.60;63.80;;;;;;5021814;28;20278;-79
2021/05/03 01:02:08;;;;;;;7.07;5.17;;;4.50;64.90;;;;;;5019270;28;20260;-79
2021/05/03 01:04:34;;;;;;;6.05;4.80;;;4.40;66.00;;;;;;5022988;28;20934;-79
2021/05/03 01:06:59;;;;;;;9.30;6.17;;;4.30;68.50;;;;;;5029845;28;20204;-80
2021/05/03 01:09:25;;;;;;;7.67;5.00;;;4.20;68.70;;;;;;5030654;28;20249;-79
2021/05/03 01:11:50;;;;;;;10.43;6.80;;;4.00;69.60;;;;;;5034191;28;20169;-78
2021/05/03 01:14:16;;;;;;;9.00;5.47;;;4.00;70.40;;;;;;5036663;28;20200;-77
2021/05/03 01:16:42;;;;;;;10.23;5.60;;;3.90;72.00;;;;;;5032351;28;20191;-80
2021/05/03 01:19:07;;;;;;;8.40;5.33;;;3.80;72.30;;;;;;5033440;28;20184;-79
2021/05/03 01:21:33;;;;;;;11.33;6.43;;;3.80;73.30;;;;;;5023211;28;20181;-78
2021/05/03 01:23:58;;;;;;;11.00;4.70;;;3.80;73.90;;;;;;5010677;28;20173;-79
2021/05/03 01:26:24;;;;;;;6.90;5.00;;;3.70;74.20;;;;;;5022908;28;20263;-78
2021/05/03 01:28:49;;;;;;;13.80;5.60;;;3.80;75.70;;;;;;5023783;28;20183;-79
2021/05/03 01:31:15;;;;;;;7.40;5.30;;;3.80;76.00;;;;;;5021618;28;20195;-79
2021/05/03 01:33:41;;;;;;;11.60;4.67;;;3.70;74.10;;;;;;5023760;28;20180;-78
2021/05/03 01:36:07;;;;;;;6.97;5.80;;;3.70;76.10;;;;;;5021966;28;20455;-79
2021/05/03 01:38:33;;;;;;;11.50;5.77;;;3.70;76.70;;;;;;5027204;28;20416;-77
2021/05/03 01:40:59;;;;;;;7.33;5.80;;;3.60;76.40;;;;;;5033360;28;20440;-79
2021/05/03 01:43:26;;;;;;;6.50;4.30;;;3.60;77.70;;;;;;5025637;28;20420;-79
2021/05/03 01:45:55;;;;;;;9.90;4.90;;;3.50;78.80;;;;;;5030255;28;20857;-78
2021/05/03 01:48:27;;;;;;;11.48;5.70;;;3.50;79.80;;;;;;5012468;28;20172;-77
2021/05/03 01:50:54;;;;;;;16.27;5.55;;;3.50;79.60;;;;;;5026398;28;20172;-79
2021/05/03 01:53:21;;;;;;;7.75;5.95;;;3.50;81.10;;;;;;5023684;28;20271;-78
2021/05/03 01:55:55;;;;;;;8.20;5.05;;;3.40;81.70;;;;;;5026891;28;20208;-79
2021/05/03 01:58:23;;;;;;;8.15;5.45;;;3.40;81.90;;;;;;5031459;28;20195;-79
2021/05/03 02:00:49;;;;;;;8.93;5.63;;;3.40;81.70;;;;;;5026844;28;20244;-78
2021/05/03 02:03:22;;;;;;;6.63;5.43;;;3.30;81.80;;;;;;5027374;28;20176;-78
2021/05/03 02:05:49;;;;;;;9.70;5.95;;;3.30;83.10;;;;;;5032235;28;20491;-77
2021/05/03 02:08:15;;;;;;;12.48;6.78;;;3.30;83.90;;;;;;5032496;28;20191;-78
2021/05/03 02:10:41;;;;;;;14.10;7.40;;;3.20;84.50;;;;;;5031923;28;20204;-78
2021/05/03 02:13:07;;;;;;;8.30;5.93;;;3.20;84.80;;;;;;5027304;28;20442;-79
2021/05/03 02:15:34;;;;;;;9.52;5.70;;;3.20;84.40;;;;;;5018522;28;20474;-76
2021/05/03 02:18:00;;;;;;;10.18;6.53;;;3.20;84.90;;;;;;5030322;28;20180;-78
2021/05/03 02:20:26;;;;;;;8.35;5.38;;;3.10;84.20;;;;;;5027688;28;20172;-80
2021/05/03 02:22:51;;;;;;;11.68;5.78;;;3.10;85.10;;;;;;5016863;28;20700;-80
2021/05/03 02:25:18;;;;;;;9.60;6.30;;;3.10;85.60;;;;;;5003521;28;20196;-80
2021/05/03 02:27:43;;;;;;;11.48;6.95;;;3.10;86.40;;;;;;5017787;28;20238;-81
2021/05/03 02:30:10;;;;;;;16.60;7.53;;;3.10;86.80;;;;;;5017317;28;20188;-80
2021/05/03 02:32:39;;;;;;;10.25;6.60;;;3.20;86.50;;;;;;5017345;28;20248;-78
2021/05/03 02:35:11;;;;;;;10.45;6.72;;;3.10;86.30;;;;;;5015693;28;20219;-79
2021/05/03 02:37:37;;;;;;;10.93;7.00;;;3.10;86.60;;;;;;5015397;28;20203;-80
2021/05/03 02:40:06;;;;;;;8.65;5.20;;;3.00;86.00;;;;;;5017134;28;20191;-78
2021/05/03 02:42:32;;;;;;;8.57;6.50;;;3.00;86.40;;;;;;5004715;28;20661;-79
2021/05/03 02:44:58;;;;;;;281.20;125.30;;;3.00;88.30;;;;;;4996883;28;20200;-77
2021/05/03 02:47:23;;;;;;;352.20;153.00;;;3.40;96.50;;;;;;5028742;28;20192;-78
2021/05/03 02:49:49;;;;;;;148.30;68.03;;;3.70;94.20;;;;;;5029403;28;20176;-79
2021/05/03 02:52:14;;;;;;;23.70;14.20;;;4.00;92.20;;;;;;5019239;28;20255;-80
2021/05/03 02:54:40;;;;;;;11.30;6.30;;;4.00;82.70;;;;;;5019116;28;20208;-79
2021/05/03 02:57:06;;;;;;;10.70;5.90;;;3.90;78.20;;;;;;5027678;28;20208;-79
2021/05/03 02:59:31;;;;;;;16.10;6.83;;;3.70;78.20;;;;;;5025691;28;20185;-79
2021/05/03 03:01:57;;;;;;;8.47;5.53;;;3.60;79.90;;;;;;5017333;28;20330;-81
2021/05/03 03:04:22;;;;;;;11.10;5.97;;;3.50;81.30;;;;;;5016545;28;20196;-80
2021/05/03 03:06:48;;;;;;;13.40;7.43;;;3.40;82.70;;;;;;5019752;28;20260;-78
2021/05/03 03:09:14;;;;;;;9.03;6.50;;;3.40;83.20;;;;;;5026163;28;20181;-78
2021/05/03 03:11:41;;;;;;;9.50;6.47;;;3.40;84.50;;;;;;5019239;28;20180;-79
2021/05/03 03:14:06;;;;;;;10.07;6.55;;;3.30;84.60;;;;;;5014897;28;20556;-80
2021/05/03 03:16:34;;;;;;;9.60;7.27;;;3.30;86.00;;;;;;5026983;28;20205;-77
2021/05/03 03:19:00;;;;;;;13.20;7.80;;;3.30;85.30;;;;;;5029362;28;20236;-78
2021/05/03 03:21:26;;;;;;;16.17;9.13;;;3.30;84.90;;;;;;5020989;28;20582;-78
2021/05/03 03:23:52;;;;;;;12.80;7.37;;;3.30;85.00;;;;;;5023905;28;20172;-78
2021/05/03 03:26:19;;;;;;;18.63;7.97;;;3.30;84.20;;;;;;5020892;28;20535;-79
2021/05/03 03:28:45;;;;;;;14.05;7.70;;;3.20;85.50;;;;;;5020711;28;20202;-80
2021/05/03 03:31:10;;;;;;;11.33;7.17;;;3.20;84.80;;;;;;5021995;28;20224;-79
2021/05/03 03:33:36;;;;;;;11.57;7.17;;;3.20;85.10;;;;;;5018430;28;20183;-79
2021/05/03 03:36:03;;;;;;;12.20;7.03;;;3.20;84.10;;;;;;5014873;28;20481;-79
2021/05/03 03:38:28;;;;;;;8.98;6.35;;;3.20;84.30;;;;;;5014110;28;20260;-78
2021/05/03 03:40:54;;;;;;;9.20;6.90;;;3.20;83.70;;;;;;5015020;28;20204;-79
2021/05/03 03:43:20;;;;;;;9.57;7.20;;;3.20;82.70;;;;;;5000161;28;20259;-79
2021/05/03 03:45:45;;;;;;;10.77;6.70;;;3.30;81.30;;;;;;5015440;28;20204;-79
2021/05/03 03:48:11;;;;;;;20.00;7.27;;;3.20;81.50;;;;;;5018923;28;20416;-79
2021/05/03 03:50:36;;;;;;;8.30;7.00;;;3.10;82.80;;;;;;5019422;28;20184;-79
2021/05/03 03:53:03;;;;;;;8.83;6.33;;;3.30;84.80;;;;;;5018435;28;20185;-79
2021/05/03 03:55:29;;;;;;;12.05;7.35;;;3.20;82.20;;;;;;5019226;28;20224;-79
2021/05/03 03:57:55;;;;;;;9.40;6.50;;;3.10;82.60;;;;;;5019138;28;20187;-78
2021/05/03 04:00:21;;;;;;;8.48;6.80;;;3.10;84.20;;;;;;5019330;28;20183;-79
2021/05/03 04:02:48;;;;;;;12.43;7.43;;;3.20;84.50;;;;;;5018190;28;20206;-80
2021/05/03 04:05:30;;;;;;;11.63;6.35;;;3.20;82.60;;;;;;5018671;28;20195;-80
2021/05/03 04:21:06;;;;;;;11.27;8.02;;;3.30;80.20;;;;;;5015330;28;20265;-75
2021/05/03 04:26:18;;;;;;;14.65;8.15;;;3.30;80.60;;;;;;4996471;28;20270;-77
2021/05/03 04:28:45;;;;;;;9.90;7.18;;;3.30;81.10;;;;;;4995520;28;20269;-77
2021/05/03 04:31:12;;;;;;;11.25;7.57;;;3.40;79.60;;;;;;4994960;28;20245;-77
2021/05/03 04:33:37;;;;;;;9.07;7.20;;;3.40;78.20;;;;;;5013443;28;20185;-77
2021/05/03 04:36:03;;;;;;;13.63;8.50;;;3.40;77.70;;;;;;5014283;28;20211;-76
2021/05/03 04:38:29;;;;;;;21.60;6.50;;;3.40;79.00;;;;;;5013993;28;20181;-77
2021/05/03 04:40:54;;;;;;;13.53;7.53;;;3.50;77.50;;;;;;5014225;28;20414;-76
2021/05/03 04:43:20;;;;;;;20.90;7.70;;;3.50;78.00;;;;;;5014230;28;20210;-76
2021/05/03 04:45:46;;;;;;;14.37;7.20;;;3.70;77.60;;;;;;5013636;28;20215;-76
2021/05/03 04:48:12;;;;;;;11.43;7.70;;;3.80;76.10;;;;;;5014935;28;20188;-76
2021/05/03 04:50:38;;;;;;;11.20;6.60;;;4.00;73.50;;;;;;5013363;28;20498;-76
2021/05/03 04:53:03;;;;;;;10.13;7.30;;;4.10;71.30;;;;;;5013970;28;20181;-75
2021/05/03 04:55:29;;;;;;;13.43;8.03;;;4.30;67.60;;;;;;5016193;28;20474;-77
2021/05/03 04:57:55;;;;;;;11.43;7.43;;;4.40;67.40;;;;;;5024849;28;20434;-76
2021/05/03 05:00:21;;;;;;;11.37;7.70;;;4.40;65.00;;;;;;5025533;28;20176;-74
2021/05/03 05:02:47;;;;;;;11.32;6.97;;;4.60;64.00;;;;;;5016682;28;20191;-77
2021/05/03 05:05:13;;;;;;;9.80;7.40;;;4.70;62.00;;;;;;5016510;28;20726;-75
2021/05/03 05:07:40;;;;;;;12.33;7.30;;;4.90;60.10;;;;;;5014610;28;20438;-76
2021/05/03 05:10:07;;;;;;;9.30;6.80;;;5.00;59.80;;;;;;5012934;28;20431;-75
2021/05/03 05:12:33;;;;;;;9.25;7.45;;;5.10;59.30;;;;;;5022342;28;20222;-79
2021/05/03 05:14:58;;;;;;;11.30;6.53;;;5.40;57.00;;;;;;5013992;28;20295;-74
2021/05/03 05:17:24;;;;;;;18.93;7.60;;;5.70;53.30;;;;;;5014735;28;20180;-76
2021/05/03 05:19:50;;;;;;;16.63;7.63;;;5.80;51.30;;;;;;5011045;28;20586;-74
2021/05/03 05:22:16;;;;;;;13.67;7.50;;;5.90;50.60;;;;;;5012591;28;20177;-74
2021/05/03 05:24:42;;;;;;;15.38;7.60;;;6.00;49.00;;;;;;5015678;28;20222;-74
2021/05/03 05:27:08;;;;;;;17.00;7.93;;;6.00;48.80;;;;;;5020772;28;20205;-75
2021/05/03 05:29:34;;;;;;;13.45;7.50;;;5.90;50.20;;;;;;5021656;28;20514;-75
2021/05/03 05:32:00;;;;;;;17.27;6.63;;;6.00;50.70;;;;;;5018164;28;20696;-75
2021/05/03 05:34:25;;;;;;;10.17;6.90;;;6.10;51.80;;;;;;5012538;28;20960;-75
2021/05/03 05:36:51;;;;;;;15.53;9.07;;;6.00;49.80;;;;;;5010590;28;20463;-73
2021/05/03 05:39:17;;;;;;;16.43;8.07;;;6.00;50.30;;;;;;5011843;28;20200;-73
2021/05/03 05:41:43;;;;;;;15.03;6.97;;;6.10;50.10;;;;;;5009297;28;20412;-73
2021/05/03 05:44:09;;;;;;;11.88;7.70;;;6.10;50.70;;;;;;5010807;28;20271;-74
2021/05/03 05:46:35;;;;;;;12.50;7.67;;;6.30;50.10;;;;;;5012794;28;20749;-75
2021/05/03 05:49:01;;;;;;;15.00;7.17;;;6.30;49.00;;;;;;4998764;28;20338;-75
2021/05/03 05:51:26;;;;;;;14.87;8.43;;;6.40;47.60;;;;;;5004932;28;20453;-74
2021/05/03 05:53:52;;;;;;;15.90;7.43;;;6.40;48.30;;;;;;5010779;28;20514;-74
2021/05/03 05:56:18;;;;;;;11.87;7.90;;;6.60;48.40;;;;;;5012556;28;20193;-74
2021/05/03 05:58:44;;;;;;;15.97;8.20;;;6.80;47.10;;;;;;5012443;28;20185;-74
2021/05/03 06:01:10;;;;;;;14.20;7.63;;;6.90;46.70;;;;;;5012100;28;20514;-73
2021/05/03 06:03:35;;;;;;;12.43;7.60;;;7.10;45.10;;;;;;5006595;28;20685;-75
2021/05/03 06:06:01;;;;;;;14.63;9.77;;;7.30;45.00;;;;;;5007007;28;20287;-74
2021/05/03 06:08:27;;;;;;;16.30;9.00;;;7.50;43.20;;;;;;5011016;28;20641;-76
2021/05/03 06:10:53;;;;;;;16.70;7.53;;;7.60;41.00;;;;;;5011345;28;20435;-74
2021/05/03 06:13:19;;;;;;;9.07;7.10;;;7.70;40.70;;;;;;5012656;28;20195;-75
2021/05/03 06:15:45;;;;;;;14.37;8.83;;;7.80;38.50;;;;;;4999873;28;20468;-74
2021/05/03 06:18:11;;;;;;;10.53;7.20;;;7.90;38.90;;;;;;5022716;28;20456;-78
2021/05/03 06:20:38;;;;;;;15.00;8.90;;;7.80;40.40;;;;;;5021605;28;20523;-75
2021/05/03 06:23:06;;;;;;;13.60;7.90;;;7.70;40.20;;;;;;5006039;28;20438;-77
2021/05/03 06:25:33;;;;;;;20.10;9.13;;;7.60;40.90;;;;;;5027077;28;20439;-75
2021/05/03 06:27:59;;;;;;;19.03;8.50;;;7.80;40.50;;;;;;5025534;28;20437;-77
2021/05/03 06:30:25;;;;;;;10.50;7.70;;;7.80;40.10;;;;;;5019047;28;20463;-77
2021/05/03 06:32:51;;;;;;;20.97;10.13;;;8.10;39.60;;;;;;5045225;28;20427;-77
2021/05/03 06:35:17;;;;;;;13.40;9.13;;;8.30;37.80;;;;;;5029532;28;20514;-76
2021/05/03 06:37:43;;;;;;;18.83;8.83;;;8.40;37.80;;;;;;5024767;28;20424;-77
2021/05/03 06:40:10;;;;;;;16.90;9.20;;;8.50;38.90;;;;;;5013735;28;20514;-80
2021/05/03 06:42:35;;;;;;;9.67;7.70;;;8.40;37.90;;;;;;5022494;28;20427;-80
2021/05/03 06:45:02;;;;;;;20.70;9.43;;;8.20;38.80;;;;;;5020608;28;20439;-81
2021/05/03 06:47:28;;;;;;;11.10;9.30;;;8.20;38.40;;;;;;5017385;28;20187;-81
2021/05/03 06:49:54;;;;;;;14.57;9.17;;;8.20;37.90;;;;;;5015876;28;20429;-79
2021/05/03 06:52:19;;;;;;;26.03;8.77;;;8.10;38.70;;;;;;5030346;28;20184;-80
2021/05/03 06:54:45;;;;;;;22.40;9.47;;;8.10;38.80;;;;;;5018295;28;20204;-80
2021/05/03 06:57:11;;;;;;;28.00;8.93;;;8.20;38.30;;;;;;5016221;28;20206;-81
2021/05/03 06:59:36;;;;;;;14.93;9.63;;;8.20;38.80;;;;;;5020259;28;20413;-80
2021/05/03 07:02:02;;;;;;;19.30;9.67;;;8.30;38.50;;;;;;5018843;28;20184;-80
2021/05/03 07:04:27;;;;;;;13.80;9.40;;;8.50;37.10;;;;;;5019603;28;20184;-80
2021/05/03 07:06:53;;;;;;;13.40;9.07;;;8.70;37.50;;;;;;5017668;28;20204;-80
2021/05/03 07:09:19;;;;;;;15.73;10.60;;;8.70;36.20;;;;;;5027045;28;20188;-80
2021/05/03 07:11:45;;;;;;;16.20;9.10;;;8.80;35.60;;;;;;5024950;28;20184;-78
2021/05/03 07:14:11;;;;;;;15.23;9.23;;;9.10;32.10;;;;;;5016786;28;20196;-80
2021/05/03 07:16:40;;;;;;;14.80;9.70;;;9.40;31.10;;;;;;5022217;28;20440;-83
2021/05/03 07:19:06;;;;;;;14.47;8.40;;;9.30;29.70;;;;;;5023033;28;20180;-81
2021/05/03 07:21:32;;;;;;;15.47;9.10;;;9.30;29.60;;;;;;5027337;28;20480;-81
2021/05/03 07:23:58;;;;;;;15.43;10.00;;;9.40;28.40;;;;;;5035119;28;20192;-78
2021/05/03 07:26:24;;;;;;;23.63;9.30;;;9.30;29.10;;;;;;5028026;28;20548;-84
2021/05/03 07:28:49;;;;;;;13.10;7.70;;;9.10;29.90;;;;;;5036781;28;20451;-83
2021/05/03 07:31:15;;;;;;;39.53;13.50;;;9.30;29.70;;;;;;5031054;28;20185;-78
2021/05/03 07:33:40;;;;;;;12.60;8.50;;;9.40;29.10;;;;;;5015826;28;20181;-77
2021/05/03 07:36:06;;;;;;;15.10;8.40;;;9.50;28.30;;;;;;5026456;23;20244;-70
2021/05/03 07:38:32;;;;;;;14.17;8.03;;;9.70;27.30;;;;;;5017242;28;20267;-70
2021/05/03 07:40:58;;;;;;;13.27;7.40;;;9.80;26.80;;;;;;5008597;28;20586;-70
2021/05/03 07:43:23;;;;;;;19.60;8.57;;;10.00;24.90;;;;;;5014598;28;20420;-70
2021/05/03 07:45:49;;;;;;;11.73;8.20;;;10.20;24.30;;;;;;5011272;28;20244;-69
2021/05/03 07:48:15;;;;;;;12.60;7.67;;;10.40;24.00;;;;;;5018225;28;20250;-70
2021/05/03 07:50:41;;;;;;;8.83;6.23;;;10.40;21.70;;;;;;5005588;28;20448;-72
2021/05/03 07:53:07;;;;;;;12.27;6.77;;;10.50;20.00;;;;;;5014498;28;20566;-71
2021/05/03 07:55:34;;;;;;;13.20;6.40;;;10.60;19.80;;;;;;5013543;28;20456;-70
2021/05/03 07:58:01;;;;;;;12.77;7.07;;;10.70;19.20;;;;;;5005064;28;20425;-71
2021/05/03 08:00:27;;;;;;;10.77;7.40;;;10.70;20.10;;;;;;5016129;28;20422;-72
2021/05/03 08:02:54;;;;;;;13.37;7.90;;;10.90;19.00;;;;;;5013900;28;21013;-71
2021/05/03 08:05:21;;;;;;;10.13;7.90;;;10.90;19.20;;;;;;5009472;28;20473;-71
2021/05/03 08:07:46;;;;;;;10.23;6.80;;;11.00;18.50;;;;;;5010793;28;20460;-71
2021/05/03 08:10:12;;;;;;;14.13;6.47;;;11.10;18.10;;;;;;4997375;28;20930;-71
2021/05/03 08:12:39;;;;;;;8.30;6.70;;;11.30;16.60;;;;;;5028467;28;20601;-71
2021/05/03 08:15:12;;;;;;;15.40;6.80;;;11.20;16.50;;;;;;5031922;28;20541;-71
2021/05/03 08:17:39;;;;;;;13.43;5.90;;;11.40;16.30;;;;;;5018564;28;20291;-72
2021/05/03 08:20:06;;;;;;;11.43;6.57;;;11.50;16.30;;;;;;5026831;28;20578;-73
2021/05/03 08:22:32;;;;;;;9.70;6.50;;;11.70;14.10;;;;;;5025714;28;20461;-72
2021/05/03 08:24:58;;;;;;;11.80;6.50;;;11.70;14.80;;;;;;5023870;28;20438;-72
2021/05/03 08:27:24;;;;;;;9.80;5.30;;;11.90;14.10;;;;;;5025731;28;20438;-71
2021/05/03 08:29:49;;;;;;;9.47;6.27;;;12.10;13.80;;;;;;5021607;28;20635;-71
2021/05/03 08:32:15;;;;;;;15.50;6.43;;;12.20;12.60;;;;;;5020191;28;20180;-71
2021/05/03 08:34:40;;;;;;;10.60;5.60;;;12.30;12.70;;;;;;5023659;28;20203;-71
2021/05/03 08:37:06;;;;;;;11.30;5.20;;;12.40;12.40;;;;;;5032970;28;20596;-72
2021/05/03 08:39:31;;;;;;;7.53;5.50;;;12.70;11.90;;;;;;5032442;28;20188;-70
2021/05/03 08:41:59;;;;;;;33.10;5.50;;;13.00;11.20;;;;;;5032782;28;20175;-71
2021/05/03 08:44:27;;;;;;;11.93;5.67;;;13.10;9.80;;;;;;5032946;28;20606;-71
2021/05/03 08:46:54;;;;;;;11.07;4.97;;;13.20;10.60;;;;;;5024224;28;20459;-71
2021/05/03 08:49:26;;;;;;;10.00;5.27;;;13.30;10.20;;;;;;5024688;28;20427;-70
2021/05/03 08:54:41;;;;;;;7.37;5.20;;;13.30;9.40;;;;;;5028338;28;20997;-71
2021/05/03 08:57:12;;;;;;;11.67;5.87;;;13.50;10.20;;;;;;5027490;28;21017;-72
2021/05/03 08:59:39;;;;;;;11.73;6.53;;;13.50;9.60;;;;;;5021273;28;20475;-72
2021/05/03 09:02:05;;;;;;;10.00;6.70;;;13.40;9.80;;;;;;5027212;28;20440;-71
2021/05/03 09:04:32;;;;;;;10.60;6.67;;;13.50;9.90;;;;;;5029627;28;20943;-71
2021/05/03 09:07:09;;;;;;;9.47;6.03;;;13.50;9.80;;;;;;5030650;28;20450;-69
2021/05/03 09:09:36;;;;;;;7.43;6.23;;;13.20;10.50;;;;;;5031253;28;20560;-72
2021/05/03 09:12:05;;;;;;;12.10;6.80;;;13.00;11.40;;;;;;5030599;28;20431;-71
2021/05/03 09:14:32;;;;;;;13.10;6.63;;;13.00;10.60;;;;;;5021858;28;20543;-71
2021/05/03 09:16:58;;;;;;;11.37;6.30;;;13.00;10.10;;;;;;5029206;28;20435;-71
2021/05/03 09:19:24;;;;;;;12.03;6.43;;;13.20;8.60;;;;;;5031135;28;20462;-71
2021/05/03 09:21:50;;;;;;;11.23;7.03;;;13.30;8.30;;;;;;5029908;28;20426;-70
2021/05/03 09:24:24;;;;;;;10.50;6.33;;;13.40;8.10;;;;;;5029512;28;20435;-71
2021/05/03 09:27:21;;;;;;;10.87;5.70;;;13.40;8.70;;;;;;5029498;28;20453;-70
2021/05/03 09:29:48;;;;;;;9.97;6.70;;;13.50;8.30;;;;;;5017151;28;20772;-71
2021/05/03 09:32:19;;;;;;;12.60;6.47;;;13.80;7.90;;;;;;5013646;28;20434;-70
2021/05/03 09:34:50;;;;;;;9.80;6.50;;;14.00;7.30;;;;;;5023506;28;20469;-71
2021/05/03 09:37:19;;;;;;;8.50;6.00;;;14.20;6.70;;;;;;5030404;28;20883;-70
2021/05/03 09:39:58;;;;;;;11.67;7.63;;;14.00;6.60;;;;;;5030757;28;20429;-72
2021/05/03 09:42:40;;;;;;;9.03;6.23;;;14.10;7.10;;;;;;5027090;28;20425;-72
2021/05/03 09:45:24;;;;;;;10.70;6.90;;;14.40;7.30;;;;;;5031726;28;20468;-72
2021/05/03 09:47:52;;;;;;;11.20;6.77;;;14.70;6.70;;;;;;5029001;28;20423;-71
2021/05/03 09:50:21;;;;;;;11.13;7.47;;;14.90;5.60;;;;;;5031284;28;20526;-72
2021/05/03 09:53:04;;;;;;;13.00;7.07;;;15.00;5.00;;;;;;5025064;28;20510;-70
2021/05/03 09:55:35;;;;;;;13.00;7.70;;;14.60;6.00;;;;;;5026158;28;20884;-71
2021/05/03 09:58:08;;;;;;;9.20;6.93;;;14.40;6.60;;;;;;5029664;28;20419;-72
2021/05/03 10:00:38;;;;;;;14.43;7.30;;;14.20;7.10;;;;;;5027667;28;20426;-71
2021/05/03 10:03:26;;;;;;;8.77;7.07;;;14.20;7.90;;;;;;5031631;28;20429;-72
2021/05/03 10:05:52;;;;;;;11.90;6.73;;;14.30;6.40;;;;;;5044780;28;20454;-71
2021/05/03 10:08:18;;;;;;;10.00;6.43;;;14.20;5.70;;;;;;5031744;28;20489;-72
2021/05/03 10:10:48;;;;;;;9.57;6.70;;;14.00;6.10;;;;;;5031442;28;20422;-72
2021/05/03 10:13:14;;;;;;;7.90;5.83;;;14.00;5.50;;;;;;5032301;28;20241;-70
2021/05/03 10:15:40;;;;;;;6.67;5.97;;;13.80;4.90;;;;;;5030073;28;20499;-69
2021/05/03 10:18:06;;;;;;;14.17;7.27;;;13.80;4.90;;;;;;5034169;28;20172;-68
2021/05/03 10:20:32;;;;;;;11.27;6.10;;;13.90;5.80;;;;;;5033075;28;20414;-68
2021/05/03 10:22:57;;;;;;;27.00;7.27;;;14.10;6.00;;;;;;5013532;28;20418;-69
2021/05/03 10:25:23;;;;;;;12.13;7.07;;;14.50;5.80;;;;;;5028105;28;20671;-71
2021/05/03 10:27:52;;;;;;;11.80;7.30;;;14.80;5.10;;;;;;5027368;28;21807;-69
2021/05/03 10:30:20;;;;;;;10.47;6.50;;;15.10;4.70;;;;;;5023717;28;20434;-71
2021/05/03 10:33:05;;;;;;;7.67;6.77;;;15.30;4.30;;;;;;5028921;28;20431;-70
2021/05/03 10:35:33;;;;;;;9.30;7.30;;;15.40;3.50;;;;;;5026929;28;20453;-72
2021/05/03 10:37:59;;;;;;;11.30;8.03;;;15.50;4.40;;;;;;5019475;28;20443;-70
2021/05/03 10:40:26;;;;;;;15.50;8.57;;;15.70;4.20;;;;;;5019240;28;20432;-69
2021/05/03 10:45:45;;;;;;;15.10;8.70;;;16.00;3.10;;;;;;5028662;28;20433;-70
2021/05/03 10:48:42;;;;;;;9.70;7.57;;;16.10;3.00;;;;;;5030933;28;20457;-69
2021/05/03 10:51:34;;;;;;;12.53;8.40;;;16.40;2.50;;;;;;5018160;28;20812;-70
2021/05/03 10:56:50;;;;;;;19.73;7.53;;;16.60;1.90;;;;;;5035673;28;20425;-69
2021/05/03 10:59:17;;;;;;;9.23;8.27;;;16.80;1.60;;;;;;5035634;28;20430;-70
2021/05/03 11:01:51;;;;;;;11.07;7.97;;;16.50;1.50;;;;;;5036140;28;20517;-71
2021/05/03 11:04:18;;;;;;;10.80;8.20;;;16.50;2.50;;;;;;5038293;28;20455;-73
2021/05/03 11:06:44;;;;;;;13.67;8.60;;;16.70;2.30;;;;;;5031450;28;20523;-72
2021/05/03 11:09:28;;;;;;;11.17;7.57;;;16.80;2.20;;;;;;5030964;28;20465;-72
2021/05/03 11:11:55;;;;;;;10.40;7.80;;;16.90;1.70;;;;;;5034704;28;20196;-72
2021/05/03 11:14:21;;;;;;;13.27;8.33;;;16.90;1.60;;;;;;5023556;28;20493;-72
2021/05/03 11:17:10;;;;;;;13.63;8.27;;;17.10;1.40;;;;;;5038009;28;20409;-71
2021/05/03 11:22:46;;;;;;;16.27;9.67;;;16.80;3.20;;;;;;5037292;28;20381;-74
2021/05/03 11:25:25;;;;;;;11.63;8.90;;;17.20;2.90;;;;;;5025126;28;20405;-71
2021/05/03 11:28:04;;;;;;;17.27;9.77;;;17.40;2.20;;;;;;5020673;28;20416;-72
2021/05/03 11:30:38;;;;;;;9.83;7.30;;;17.70;1.00;;;;;;5030915;28;20495;-70
2021/05/03 11:38:44;;;;;;;12.07;8.57;;;17.60;1.50;;;;;;5014731;28;20525;-71
2021/05/03 11:41:21;;;;;;;10.43;7.70;;;17.60;1.10;;;;;;5030914;28;20513;-71
2021/05/03 11:46:35;;;;;;;12.10;8.20;;;17.30;1.00;;;;;;5023516;28;20432;-71
2021/05/03 11:49:15;;;;;;;10.43;6.87;;;17.30;1.30;;;;;;5031572;28;20448;-71
2021/05/03 11:51:57;;;;;;;8.77;7.53;;;17.80;1.00;;;;;;5035152;28;20392;-70
2021/05/03 11:54:32;;;;;;;12.90;8.10;;;17.80;1.00;;;;;;5032639;28;20429;-70
2021/05/03 11:57:06;;;;;;;8.13;7.33;;;17.90;1.00;;;;;;5035672;28;20433;-73
2021/05/03 11:59:34;;;;;;;10.57;8.17;;;17.80;1.00;;;;;;5036537;28;20420;-71
2021/05/03 12:02:06;;;;;;;9.50;7.83;;;18.10;1.00;;;;;;5035887;28;20481;-72
2021/05/03 12:04:38;;;;;;;20.43;8.67;;;18.60;1.00;;;;;;5017010;28;20427;-72
2021/05/03 12:07:13;;;;;;;12.20;7.97;;;18.90;1.00;;;;;;5024833;28;20520;-72
2021/05/03 12:09:40;;;;;;;13.50;7.83;;;19.00;1.00;;;;;;5035385;28;20857;-72
2021/05/03 12:12:06;;;;;;;11.00;7.57;;;19.20;1.00;;;;;;5035253;28;20430;-72
2021/05/03 12:14:49;;;;;;;8.23;6.60;;;18.90;1.00;;;;;;5024998;28;20457;-72
2021/05/03 12:17:23;;;;;;;10.53;6.63;;;18.60;1.00;;;;;;5035591;28;20429;-72
2021/05/03 12:19:52;;;;;;;9.20;8.27;;;18.60;1.00;;;;;;5035023;28;20413;-70
2021/05/03 12:22:19;;;;;;;10.43;7.43;;;18.30;1.00;;;;;;5035957;28;20393;-71
2021/05/03 12:24:45;;;;;;;11.87;7.93;;;17.80;1.00;;;;;;5033930;28;20396;-71
2021/05/03 12:27:12;;;;;;;17.80;9.20;;;17.40;1.00;;;;;;5026267;28;20443;-76
2021/05/03 12:29:40;;;;;;;13.10;8.43;;;17.00;1.00;;;;;;5031779;28;20930;-76
2021/05/03 12:32:11;;;;;;;12.23;9.00;;;16.90;1.00;;;;;;5035694;28;20400;-71
2021/05/03 12:34:48;;;;;;;11.87;8.80;;;16.80;1.00;;;;;;5019823;28;20495;-71
2021/05/03 12:37:20;;;;;;;12.57;8.10;;;16.80;1.20;;;;;;5015321;28;20436;-72
2021/05/03 12:40:06;;;;;;;13.50;8.90;;;17.00;1.00;;;;;;5025144;28;20455;-71
2021/05/03 12:42:33;;;;;;;24.00;9.23;;;16.90;1.00;;;;;;5030171;28;20397;-71
2021/05/03 12:45:03;;;;;;;13.63;8.63;;;16.90;1.00;;;;;;5030025;28;20752;-74
2021/05/03 12:48:00;;;;;;;13.23;9.80;;;17.00;1.00;;;;;;5019325;28;20566;-72
2021/05/03 12:56:06;;;;;;;9.60;7.80;;;16.80;1.00;;;;;;5006296;28;21027;-72
2021/05/03 12:58:39;;;;;;;11.63;7.93;;;17.00;1.00;;;;;;5023738;28;20427;-72
2021/05/03 13:01:44;;;;;;;9.70;7.70;;;17.30;1.00;;;;;;5019232;28;20407;-71
2021/05/03 13:10:05;;;;;;;8.80;6.40;;;16.90;1.00;;;;;;5015797;28;20412;-71
2021/05/03 13:29:03;;;;;;;10.50;6.00;;;19.70;1.00;;;;;;5018901;28;20930;-72
2021/05/03 13:31:30;;;;;;;8.67;6.67;;;19.90;1.00;;;;;;5013847;28;20413;-71
2021/05/03 13:33:56;;;;;;;7.77;6.07;;;19.20;1.00;;;;;;5013132;28;20411;-71
2021/05/03 13:36:22;;;;;;;13.67;6.30;;;18.50;1.00;;;;;;5028926;22;20501;-77
2021/05/03 13:38:49;;;;;;;7.97;6.07;;;18.00;1.00;;;;;;5019287;28;20403;-77
2021/05/03 13:41:15;;;;;;;7.33;6.63;;;18.30;1.00;;;;;;5020788;28;20164;-77
2021/05/03 13:43:41;;;;;;;11.43;8.50;;;19.20;1.00;;;;;;5019611;28;20416;-79
2021/05/03 13:46:07;;;;;;;11.17;6.77;;;19.90;1.00;;;;;;5028416;28;20512;-77
2021/05/03 13:48:32;;;;;;;6.60;5.60;;;20.20;1.00;;;;;;5019427;28;20223;-77
2021/05/03 13:50:58;;;;;;;6.70;5.93;;;20.20;1.00;;;;;;5021689;28;20188;-77
2021/05/03 13:53:23;;;;;;;6.63;6.00;;;19.80;1.00;;;;;;5018877;28;20168;-77
2021/05/03 13:55:49;;;;;;;6.30;5.70;;;18.80;1.00;;;;;;5014633;28;20660;-76